Renee' T. Whatley — WDD5243 — position and weather

sailwx.info

Track history (hours):
 
Tides and Currents Weather Stations Pressure Air Temp Water Temp Dewpoint Dewpoint Depression Visibility Wind Speed Wind Dir Waves Ship Positions

Renee' T. Whatley

Owner: Terral RiverService, Inc., Lake Providence, LA. More information available from US FCC via Universal Licensing System and Coast Guard Vessel Documentation Center.

Last reported at 2014-Dec-14 04:33 UTC. Time now 2014-Dec-22 20:34 UTC.
Position N 29°41' W 091°10'.
Warning: this ship's position is 8 days out of date.

Length 11 m.

Type: Tug. MMSI: 367155550.

Date/timePositionNaut miles runAvg speedWind from/ knotsBaromVisibWave heightAir tempDewpointWater temp
2014-Dec-14 04:33N 29°41' W 091°10'4 4.2
2014-Dec-14 03:33N 29°39' W 091°06'2 2.1
2014-Dec-14 02:33N 29°41' W 091°06'0 0.0
2014-Dec-13 22:33N 29°41' W 091°06'0 0.0
2014-Dec-13 21:33N 29°41' W 091°06'0 0.0
2014-Dec-13 20:33N 29°41' W 091°06'0 0.0
2014-Dec-13 19:33N 29°41' W 091°06'0 0.0
2014-Dec-13 18:33N 29°41' W 091°06'0 0.0
2014-Dec-13 17:33N 29°41' W 091°06'0 0.0
2014-Dec-13 16:33N 29°41' W 091°06'0 0.0
2014-Dec-13 15:33N 29°41' W 091°06'0 0.0
2014-Dec-13 14:33N 29°41' W 091°06'0 0.0
2014-Dec-13 13:33N 29°41' W 091°06'0 0.0
2014-Dec-13 12:33N 29°41' W 091°06'0 0.0
2014-Dec-13 11:33N 29°41' W 091°06'0 0.0
2014-Dec-13 10:33N 29°41' W 091°06'0 0.0
2014-Dec-13 09:33N 29°41' W 091°06'0 0.0
2014-Dec-13 08:33N 29°41' W 091°06'0 0.0
2014-Dec-13 07:33N 29°41' W 091°06'0 0.0
2014-Dec-13 06:33N 29°41' W 091°06'0 0.0
2014-Dec-13 05:33N 29°41' W 091°06'0 0.0
2014-Dec-13 04:33N 29°41' W 091°06'0 0.0
2014-Dec-13 03:33N 29°41' W 091°06'0 0.0
2014-Dec-13 02:33N 29°41' W 091°06'0 0.0
2014-Dec-13 01:33N 29°41' W 091°06'0 0.0
2014-Dec-12 23:34N 29°41' W 091°06'0 0.0
2014-Dec-12 22:34N 29°41' W 091°06'0 0.0
2014-Dec-12 21:34N 29°41' W 091°06'0 0.0
2014-Dec-12 20:34N 29°41' W 091°06'0 0.0
2014-Dec-12 19:34N 29°41' W 091°06'0 0.0
2014-Dec-12 18:34N 29°41' W 091°06'0 0.0
2014-Dec-12 15:33N 29°41' W 091°06'0 0.0
2014-Dec-12 14:33N 29°41' W 091°06'0 0.0
2014-Dec-12 13:33N 29°41' W 091°06'0 0.0
2014-Dec-12 12:33N 29°41' W 091°06'0 0.0
2014-Dec-12 11:33N 29°41' W 091°06'0 0.0
2014-Dec-12 10:33N 29°41' W 091°06'0 0.0
2014-Dec-12 09:33N 29°41' W 091°06'0 0.0
2014-Dec-12 08:33N 29°41' W 091°06'0 0.0
2014-Dec-12 07:33N 29°41' W 091°06'2 2.0
2014-Dec-12 06:33N 29°40' W 091°08'5 5.4
2014-Dec-12 05:33N 29°42' W 091°13'6 6.3
2014-Dec-12 04:33N 29°46' W 091°19'8 8.2
2014-Dec-12 03:33N 29°52' W 091°25'8 8.1
2014-Dec-12 02:33N 29°60' W 091°29'  
Track history (hours):
 
Tides and Currents Weather Stations Pressure Air Temp Water Temp Dewpoint Dewpoint Depression Visibility Wind Speed Wind Dir Waves Ship Positions

Renee' T. Whatley

Owner: Terral RiverService, Inc., Lake Providence, LA. More information available from US FCC via Universal Licensing System and Coast Guard Vessel Documentation Center.

Last reported at 2014-Dec-14 04:33 UTC. Time now 2014-Dec-22 20:34 UTC.
Position N 29°41' W 091°10'.
Warning: this ship's position is 8 days out of date.

Length 11 m.

Type: Tug. MMSI: 367155550.

Date/timePositionNaut miles runAvg speedWind from/ knotsBaromVisibWave heightAir tempDewpointWater temp
2014-Dec-14 04:33N 29°41' W 091°10'4 4.2
2014-Dec-14 03:33N 29°39' W 091°06'2 2.1
2014-Dec-14 02:33N 29°41' W 091°06'0 0.0
2014-Dec-13 22:33N 29°41' W 091°06'0 0.0
2014-Dec-13 21:33N 29°41' W 091°06'0 0.0
2014-Dec-13 20:33N 29°41' W 091°06'0 0.0
2014-Dec-13 19:33N 29°41' W 091°06'0 0.0
2014-Dec-13 18:33N 29°41' W 091°06'0 0.0
2014-Dec-13 17:33N 29°41' W 091°06'0 0.0
2014-Dec-13 16:33N 29°41' W 091°06'0 0.0
2014-Dec-13 15:33N 29°41' W 091°06'0 0.0
2014-Dec-13 14:33N 29°41' W 091°06'0 0.0
2014-Dec-13 13:33N 29°41' W 091°06'0 0.0
2014-Dec-13 12:33N 29°41' W 091°06'0 0.0
2014-Dec-13 11:33N 29°41' W 091°06'0 0.0
2014-Dec-13 10:33N 29°41' W 091°06'0 0.0
2014-Dec-13 09:33N 29°41' W 091°06'0 0.0
2014-Dec-13 08:33N 29°41' W 091°06'0 0.0
2014-Dec-13 07:33N 29°41' W 091°06'0 0.0
2014-Dec-13 06:33N 29°41' W 091°06'0 0.0
2014-Dec-13 05:33N 29°41' W 091°06'0 0.0
2014-Dec-13 04:33N 29°41' W 091°06'0 0.0
2014-Dec-13 03:33N 29°41' W 091°06'0 0.0
2014-Dec-13 02:33N 29°41' W 091°06'0 0.0
2014-Dec-13 01:33N 29°41' W 091°06'0 0.0
2014-Dec-12 23:34N 29°41' W 091°06'0 0.0
2014-Dec-12 22:34N 29°41' W 091°06'0 0.0
2014-Dec-12 21:34N 29°41' W 091°06'0 0.0
2014-Dec-12 20:34N 29°41' W 091°06'0 0.0
2014-Dec-12 19:34N 29°41' W 091°06'0 0.0
2014-Dec-12 18:34N 29°41' W 091°06'0 0.0
2014-Dec-12 15:33N 29°41' W 091°06'0 0.0
2014-Dec-12 14:33N 29°41' W 091°06'0 0.0
2014-Dec-12 13:33N 29°41' W 091°06'0 0.0
2014-Dec-12 12:33N 29°41' W 091°06'0 0.0
2014-Dec-12 11:33N 29°41' W 091°06'0 0.0
2014-Dec-12 10:33N 29°41' W 091°06'0 0.0
2014-Dec-12 09:33N 29°41' W 091°06'0 0.0
2014-Dec-12 08:33N 29°41' W 091°06'0 0.0
2014-Dec-12 07:33N 29°41' W 091°06'2 2.0
2014-Dec-12 06:33N 29°40' W 091°08'5 5.4
2014-Dec-12 05:33N 29°42' W 091°13'6 6.3
2014-Dec-12 04:33N 29°46' W 091°19'8 8.2
2014-Dec-12 03:33N 29°52' W 091°25'8 8.1
2014-Dec-12 02:33N 29°60' W 091°29'  

Dump ship's entire track history